createdAt,value
2022-11-05T00:00:37.550Z,16.77
2022-11-05T00:03:23.800Z,17.00
2022-11-05T00:06:12.247Z,17.17
2022-11-05T00:08:59.695Z,16.55
2022-11-05T00:11:47.680Z,15.63
2022-11-05T00:14:33.633Z,15.45
2022-11-05T00:17:00.770Z,15.48
2022-11-05T00:19:27.994Z,15.30
2022-11-05T00:22:13.969Z,15.15
2022-11-05T00:24:59.539Z,15.02
2022-11-05T00:27:28.982Z,16.48
2022-11-05T00:29:56.165Z,15.73
2022-11-05T00:32:25.728Z,14.93
2022-11-05T00:34:55.843Z,16.42
2022-11-05T00:37:25.158Z,14.93
2022-11-05T00:39:52.171Z,14.90
2022-11-05T00:42:38.136Z,15.75
2022-11-05T00:45:06.832Z,15.35
2022-11-05T00:47:53.133Z,16.08
2022-11-05T00:50:22.466Z,14.13
2022-11-05T00:53:00.723Z,15.60
2022-11-05T00:55:40.795Z,14.65
2022-11-05T00:58:20.646Z,14.55
2022-11-05T01:00:54.996Z,15.05
2022-11-05T01:03:32.590Z,15.95
2022-11-05T01:06:11.371Z,14.75
2022-11-05T01:08:39.129Z,14.88
2022-11-05T01:11:34.404Z,15.30
2022-11-05T01:14:11.788Z,15.07
2022-11-05T01:16:42.655Z,15.57
2022-11-05T01:19:11.349Z,14.85
2022-11-05T01:21:38.957Z,14.82
2022-11-05T01:24:06.776Z,14.70
2022-11-05T01:26:33.920Z,14.82
2022-11-05T01:29:01.099Z,15.88
2022-11-05T01:31:29.262Z,15.50
2022-11-05T01:33:56.384Z,14.68
2022-11-05T01:36:23.491Z,15.48
2022-11-05T01:38:50.589Z,14.02
2022-11-05T01:41:17.957Z,13.77
2022-11-05T01:43:59.309Z,13.48
2022-11-05T01:46:40.596Z,13.85
2022-11-05T01:49:25.390Z,13.80
2022-11-05T01:51:56.145Z,13.57
2022-11-05T01:54:29.706Z,13.88
2022-11-05T01:57:04.115Z,13.20
2022-11-05T01:59:40.874Z,13.23
2022-11-05T02:02:10.806Z,13.70
2022-11-05T02:04:48.104Z,13.48
2022-11-05T02:07:15.792Z,13.48
2022-11-05T02:09:56.319Z,13.50
2022-11-05T02:12:24.212Z,13.75
2022-11-05T02:14:51.318Z,14.45
2022-11-05T02:17:23.993Z,13.48
2022-11-05T02:20:03.018Z,14.60
2022-11-05T02:23:23.134Z,14.07
2022-11-05T02:26:13.379Z,13.75
2022-11-05T02:29:20.247Z,13.45
2022-11-05T02:32:17.738Z,14.25
2022-11-05T02:35:37.096Z,14.15
2022-11-05T02:38:18.076Z,14.77
2022-11-05T02:41:12.639Z,15.10
2022-11-05T02:44:18.852Z,15.50
2022-11-05T02:47:05.861Z,14.95
2022-11-05T02:50:17.700Z,14.38
2022-11-05T02:53:02.946Z,15.50
2022-11-05T02:55:45.720Z,14.93
2022-11-05T02:58:13.783Z,14.30
2022-11-05T03:00:50.340Z,15.27
2022-11-05T03:03:41.014Z,14.45
2022-11-05T03:06:31.122Z,13.82
2022-11-05T03:09:29.144Z,13.93
2022-11-05T03:12:37.078Z,13.68
2022-11-05T03:15:10.238Z,13.48
2022-11-05T03:17:52.657Z,13.32
2022-11-05T03:22:56.164Z,13.52
2022-11-05T03:25:25.902Z,13.20
2022-11-05T03:28:00.667Z,13.50
2022-11-05T03:30:28.061Z,13.27
2022-11-05T03:33:06.396Z,12.57
2022-11-05T03:35:40.211Z,12.20
2022-11-05T03:38:15.609Z,12.68
2022-11-05T03:40:46.105Z,12.80
2022-11-05T03:43:27.565Z,13.00
2022-11-05T03:46:02.075Z,8.45
2022-11-05T03:48:33.120Z,12.55
2022-11-05T03:51:34.171Z,12.15
2022-11-05T03:54:05.229Z,13.10
2022-11-05T03:57:10.466Z,11.80
2022-11-05T03:59:47.798Z,11.18
2022-11-05T04:02:23.000Z,12.23
2022-11-05T04:04:50.291Z,11.73
2022-11-05T04:07:36.162Z,11.55
2022-11-05T04:10:22.182Z,12.88
2022-11-05T04:13:10.873Z,10.93
2022-11-05T04:15:57.017Z,10.73
2022-11-05T04:18:24.354Z,12.52
2022-11-05T04:21:12.716Z,12.43
2022-11-05T04:23:58.689Z,12.18
2022-11-05T04:26:25.753Z,11.85
2022-11-05T04:29:11.690Z,13.50
2022-11-05T04:31:39.069Z,12.70
2022-11-05T04:34:11.723Z,13.60
2022-11-05T04:36:38.906Z,13.45
2022-11-05T04:39:06.005Z,13.23
2022-11-05T04:41:35.340Z,12.68
2022-11-05T04:44:02.703Z,12.68
2022-11-05T04:46:32.379Z,12.75
2022-11-05T04:48:59.651Z,14.15
2022-11-05T04:51:27.317Z,12.57
2022-11-05T04:53:54.758Z,13.85
2022-11-05T04:56:24.580Z,13.45
2022-11-05T04:58:52.303Z,13.18
2022-11-05T05:01:22.877Z,12.68
2022-11-05T05:03:52.092Z,13.23
2022-11-05T05:06:19.446Z,13.27
2022-11-05T05:08:51.760Z,13.55
2022-11-05T05:13:49.131Z,13.32
2022-11-05T05:16:21.804Z,13.75
2022-11-05T05:18:50.052Z,12.27
2022-11-05T05:21:38.447Z,13.60
2022-11-05T05:24:18.663Z,13.90
2022-11-05T05:26:49.593Z,13.00
2022-11-05T05:29:18.221Z,12.63
2022-11-05T05:31:45.406Z,12.68
2022-11-05T05:34:14.683Z,13.20
2022-11-05T05:36:41.937Z,13.05
2022-11-05T05:39:11.101Z,14.07
2022-11-05T05:41:38.492Z,13.88
2022-11-05T05:44:06.586Z,14.32
2022-11-05T05:46:33.768Z,14.05
2022-11-05T05:49:00.911Z,15.20
2022-11-05T05:51:27.984Z,14.52
2022-11-05T05:53:55.057Z,15.20
2022-11-05T05:56:22.194Z,14.65
2022-11-05T05:58:49.439Z,15.18
2022-11-05T06:01:20.345Z,15.27
2022-11-05T06:03:48.877Z,15.52
2022-11-05T06:06:21.608Z,14.75
2022-11-05T06:08:52.247Z,15.07
2022-11-05T06:11:21.772Z,14.95
2022-11-05T06:13:49.563Z,15.48
2022-11-05T06:16:22.100Z,16.30
2022-11-05T06:18:49.461Z,16.48
2022-11-05T06:21:18.265Z,18.02
2022-11-05T06:23:49.215Z,17.15
2022-11-05T06:26:18.971Z,17.92
2022-11-05T06:28:46.830Z,17.80
2022-11-05T06:31:15.534Z,17.98
2022-11-05T06:33:42.952Z,17.65
2022-11-05T06:36:15.702Z,17.80
2022-11-05T06:38:43.197Z,17.15
2022-11-05T06:41:10.963Z,17.20
2022-11-05T06:43:38.649Z,16.88
2022-11-05T06:46:06.102Z,16.08
2022-11-05T06:48:33.489Z,15.73
2022-11-05T06:51:00.595Z,14.95
2022-11-05T06:53:30.702Z,14.30
2022-11-05T06:55:57.873Z,14.32
2022-11-05T06:58:24.973Z,12.70
2022-11-05T07:00:52.193Z,13.98
2022-11-05T07:03:21.742Z,13.18
2022-11-05T07:05:51.153Z,13.02
2022-11-05T07:08:18.406Z,13.55
2022-11-05T07:10:45.699Z,13.20
2022-11-05T07:13:13.182Z,12.60
2022-11-05T07:15:40.609Z,13.52
2022-11-05T07:18:07.987Z,12.60
2022-11-05T07:20:35.415Z,12.38
2022-11-05T07:23:07.841Z,11.05
2022-11-05T07:25:35.621Z,12.43
2022-11-05T07:28:04.236Z,11.45
2022-11-05T07:30:33.068Z,12.70
2022-11-05T07:33:00.617Z,11.68
2022-11-05T07:35:28.469Z,11.30
2022-11-05T07:37:55.890Z,10.50
2022-11-05T07:40:26.872Z,10.95
2022-11-05T07:42:59.311Z,10.52
2022-11-05T07:45:31.857Z,9.50
2022-11-05T07:48:04.320Z,10.25
2022-11-05T07:50:38.244Z,9.20
2022-11-05T07:53:15.004Z,9.32
2022-11-05T07:55:44.001Z,9.38
2022-11-05T07:58:12.219Z,9.13
2022-11-05T08:00:39.860Z,8.57
2022-11-05T08:03:09.797Z,8.80
2022-11-05T08:05:40.501Z,7.40
2022-11-05T08:08:12.488Z,7.10
2022-11-05T08:10:40.600Z,7.18
2022-11-05T08:13:09.316Z,6.75
2022-11-05T08:15:36.588Z,5.70
2022-11-05T08:18:12.466Z,6.80
2022-11-05T08:20:41.803Z,6.80
2022-11-05T08:23:09.810Z,6.05
2022-11-05T08:25:40.100Z,5.10
2022-11-05T08:28:11.640Z,6.22
2022-11-05T08:30:38.771Z,5.72
2022-11-05T08:33:11.131Z,5.07
2022-11-05T08:35:39.973Z,6.35
2022-11-05T08:38:10.477Z,5.10
2022-11-05T08:40:38.127Z,4.53
2022-11-05T08:43:08.191Z,4.60
2022-11-05T08:45:41.311Z,4.43
2022-11-05T08:48:12.988Z,3.97
2022-11-05T08:50:40.400Z,3.80
2022-11-05T08:53:09.362Z,3.58
2022-11-05T08:55:38.523Z,4.22
2022-11-05T08:58:27.038Z,2.50
2022-11-05T09:00:54.269Z,3.15
2022-11-05T09:03:21.546Z,2.70
2022-11-05T09:05:48.810Z,2.50
2022-11-05T09:08:18.868Z,2.60
2022-11-05T09:10:47.795Z,2.90
2022-11-05T09:13:19.440Z,3.03
2022-11-05T09:15:49.437Z,3.05
2022-11-05T09:18:20.151Z,3.15
2022-11-05T09:20:47.739Z,3.30
2022-11-05T09:23:15.745Z,3.08
2022-11-05T09:25:43.957Z,2.40
2022-11-05T09:28:21.390Z,2.13
2022-11-05T09:30:51.435Z,2.47
2022-11-05T09:33:22.875Z,2.35
2022-11-05T09:35:53.615Z,1.90
2022-11-05T09:38:20.957Z,1.80
2022-11-05T09:41:23.613Z,1.70
2022-11-05T09:44:12.118Z,1.50
2022-11-05T09:47:03.026Z,1.67
2022-11-05T09:49:40.187Z,1.90
2022-11-05T09:52:31.912Z,1.63
2022-11-05T09:55:07.191Z,2.00
2022-11-05T09:57:53.456Z,2.15
2022-11-05T10:00:20.877Z,1.95
2022-11-05T10:03:04.571Z,2.00
2022-11-05T10:05:33.038Z,1.83
2022-11-05T10:08:26.524Z,2.05
2022-11-05T10:11:09.746Z,1.90
2022-11-05T10:13:49.679Z,1.60
2022-11-05T10:16:36.193Z,2.05
2022-11-05T10:19:28.449Z,1.75
2022-11-05T10:22:17.951Z,1.60
2022-11-05T10:24:50.910Z,1.85
2022-11-05T10:27:35.532Z,1.92
2022-11-05T10:30:02.917Z,2.00
2022-11-05T10:32:39.460Z,1.80
2022-11-05T10:35:19.025Z,2.25
2022-11-05T10:37:51.536Z,1.90
2022-11-05T10:40:27.834Z,2.72
2022-11-05T10:43:11.396Z,2.45
2022-11-05T10:46:08.855Z,2.05
2022-11-05T10:48:43.967Z,2.15
2022-11-05T10:51:14.865Z,1.80
2022-11-05T10:54:02.164Z,1.83
2022-11-05T10:56:39.314Z,2.45
2022-11-05T10:59:25.205Z,2.40
2022-11-05T11:02:23.218Z,2.45
2022-11-05T11:04:58.456Z,2.30
2022-11-05T11:07:27.030Z,2.92
2022-11-05T11:09:54.631Z,2.92
2022-11-05T11:12:26.343Z,2.47
2022-11-05T11:15:14.277Z,2.90
2022-11-05T11:17:41.847Z,3.30
2022-11-05T11:20:36.448Z,2.42
2022-11-05T11:23:12.917Z,2.78
2022-11-05T11:25:58.164Z,2.30
2022-11-05T11:28:39.970Z,2.47
2022-11-05T11:31:14.744Z,2.47
2022-11-05T11:33:48.714Z,2.65
2022-11-05T11:36:24.376Z,2.70
2022-11-05T11:38:58.396Z,2.72
2022-11-05T11:41:31.348Z,2.75
2022-11-05T11:44:12.982Z,2.95
2022-11-05T11:46:40.969Z,3.50
2022-11-05T11:49:33.711Z,3.10
2022-11-05T11:52:16.161Z,3.22
2022-11-05T11:57:29.546Z,3.95
2022-11-05T12:00:14.629Z,3.08
2022-11-05T12:03:11.260Z,3.40
2022-11-05T12:06:03.444Z,3.00
2022-11-05T12:09:18.926Z,3.05
2022-11-05T12:12:14.431Z,3.50
2022-11-05T12:14:53.662Z,3.00
2022-11-05T12:17:52.815Z,3.75
2022-11-05T12:20:38.635Z,3.13
2022-11-05T12:23:29.441Z,3.67
2022-11-05T12:26:30.906Z,4.05
2022-11-05T12:29:36.174Z,4.75
2022-11-05T12:32:29.076Z,4.07
2022-11-05T12:35:02.133Z,5.28
2022-11-05T12:37:52.272Z,4.30
2022-11-05T12:40:44.190Z,4.75
2022-11-05T12:43:43.826Z,4.68
2022-11-05T12:46:22.693Z,5.10
2022-11-05T12:49:15.541Z,5.15
2022-11-05T12:52:12.626Z,4.85
2022-11-05T12:55:03.147Z,4.40
2022-11-05T12:57:35.777Z,3.90
2022-11-05T13:00:19.586Z,4.25
2022-11-05T13:03:13.655Z,3.85
2022-11-05T13:05:45.315Z,4.00
2022-11-05T13:08:30.016Z,4.53
2022-11-05T13:11:48.381Z,3.97
2022-11-05T13:14:45.484Z,4.35
2022-11-05T13:17:42.205Z,3.63
2022-11-05T13:20:37.943Z,3.63
2022-11-05T13:23:07.952Z,3.78
2022-11-05T13:25:45.108Z,3.90
2022-11-05T13:28:46.923Z,4.43
2022-11-05T13:31:21.776Z,4.82
2022-11-05T13:33:52.803Z,4.80
2022-11-05T13:37:11.421Z,5.05
2022-11-05T13:40:03.275Z,4.68
2022-11-05T13:43:18.049Z,5.10
2022-11-05T13:46:27.655Z,4.93
2022-11-05T13:49:59.292Z,4.95
2022-11-05T13:53:06.396Z,4.20
2022-11-05T13:55:57.320Z,4.85
2022-11-05T13:58:58.226Z,5.25
2022-11-05T14:01:56.185Z,5.85
2022-11-05T14:05:02.007Z,5.25
2022-11-05T14:07:31.821Z,5.72
2022-11-05T14:10:11.873Z,5.38
2022-11-05T14:12:46.422Z,5.45
2022-11-05T14:15:31.008Z,5.60
2022-11-05T14:18:06.563Z,5.75
2022-11-05T14:20:33.514Z,6.45
2022-11-05T14:23:23.129Z,5.93
2022-11-05T14:26:17.388Z,6.18
2022-11-05T14:28:48.616Z,6.78
2022-11-05T14:31:18.673Z,5.93
2022-11-05T14:34:04.602Z,8.25
2022-11-05T14:36:46.476Z,9.02
2022-11-05T14:39:21.290Z,8.30
2022-11-05T14:42:06.446Z,7.68
2022-11-05T14:44:36.100Z,6.30
2022-11-05T14:47:07.868Z,6.00
2022-11-05T14:50:09.236Z,6.03
2022-11-05T14:52:38.802Z,6.07
2022-11-05T14:55:07.271Z,6.45
2022-11-05T14:57:44.467Z,6.25
2022-11-05T15:00:29.779Z,6.35
2022-11-05T15:03:02.582Z,6.55
2022-11-05T15:06:02.074Z,5.53
2022-11-05T15:08:44.106Z,5.65
2022-11-05T15:11:25.912Z,5.50
2022-11-05T15:13:56.393Z,6.03
2022-11-05T15:16:31.951Z,5.97
2022-11-05T15:19:00.047Z,5.82
2022-11-05T15:21:38.239Z,5.10
2022-11-05T15:24:06.107Z,4.75
2022-11-05T15:27:21.766Z,4.75
2022-11-05T15:29:49.046Z,5.75
2022-11-05T15:32:23.957Z,6.20
2022-11-05T15:34:56.354Z,5.90
2022-11-05T15:37:27.955Z,5.85
2022-11-05T15:39:55.659Z,6.60
2022-11-05T15:42:27.328Z,6.22
2022-11-05T15:44:59.988Z,6.90
2022-11-05T15:47:34.383Z,6.68
2022-11-05T15:50:14.765Z,6.90
2022-11-05T15:52:54.644Z,7.47
2022-11-05T15:55:25.636Z,6.82
2022-11-05T15:58:00.713Z,7.45
2022-11-05T16:00:37.228Z,6.72
2022-11-05T16:03:28.336Z,7.57
2022-11-05T16:05:56.274Z,6.95
2022-11-05T16:08:27.857Z,7.38
2022-11-05T16:11:00.895Z,6.55
2022-11-05T16:13:29.207Z,7.70
2022-11-05T16:15:59.487Z,7.45
2022-11-05T16:18:38.733Z,8.63
2022-11-05T16:23:59.556Z,9.77
2022-11-05T16:27:01.828Z,9.52
2022-11-05T16:29:39.557Z,9.75
2022-11-05T16:32:29.506Z,9.65
2022-11-05T16:35:02.206Z,9.25
2022-11-05T16:37:38.184Z,10.30
2022-11-05T16:40:19.273Z,10.50
2022-11-05T16:42:51.577Z,11.23
2022-11-05T16:45:23.002Z,17.42
2022-11-05T16:47:50.791Z,19.20
2022-11-05T16:50:24.361Z,16.40
2022-11-05T16:52:51.866Z,14.10
2022-11-05T16:55:19.543Z,14.95
2022-11-05T16:57:53.241Z,14.18
2022-11-05T17:00:22.350Z,12.75
2022-11-05T17:02:49.794Z,12.90
2022-11-05T17:05:28.454Z,14.30
2022-11-05T17:07:56.430Z,13.35
2022-11-05T17:10:27.977Z,12.63
2022-11-05T17:12:55.455Z,12.32
2022-11-05T17:15:35.785Z,16.35
2022-11-05T17:18:05.106Z,15.82
2022-11-05T17:20:40.873Z,16.35
2022-11-05T17:23:15.679Z,17.63
2022-11-05T17:25:47.271Z,16.70
2022-11-05T17:28:16.642Z,17.33
2022-11-05T17:30:51.682Z,18.85
2022-11-05T17:33:20.188Z,19.10
2022-11-05T17:35:47.315Z,18.33
2022-11-05T17:38:14.651Z,18.67
2022-11-05T17:40:42.076Z,19.75
2022-11-05T17:43:12.409Z,17.10
2022-11-05T17:45:52.420Z,16.98
2022-11-05T17:48:21.363Z,14.52
2022-11-05T17:50:50.549Z,15.20
2022-11-05T17:53:19.242Z,14.30
2022-11-05T17:55:47.621Z,12.60
2022-11-05T17:58:15.093Z,11.85
2022-11-05T18:00:44.337Z,13.10
2022-11-05T18:03:12.848Z,13.35
2022-11-05T18:05:41.690Z,13.32
2022-11-05T18:08:12.751Z,11.75
2022-11-05T18:10:43.412Z,11.15
2022-11-05T18:13:11.492Z,9.93
2022-11-05T18:15:41.366Z,9.00
2022-11-05T18:18:09.437Z,8.57
2022-11-05T18:20:36.671Z,8.55
2022-11-05T18:23:08.782Z,7.38
2022-11-05T18:25:36.176Z,8.23
2022-11-05T18:28:03.961Z,8.85
2022-11-05T18:30:31.151Z,9.93
2022-11-05T18:32:58.220Z,10.40
2022-11-05T18:35:25.497Z,10.98
2022-11-05T18:37:52.589Z,10.63
2022-11-05T18:40:19.724Z,9.63
2022-11-05T18:42:46.738Z,9.85
2022-11-05T18:45:13.940Z,8.85
2022-11-05T18:47:41.163Z,9.20
2022-11-05T18:50:14.160Z,9.82
2022-11-05T18:52:41.226Z,9.50
2022-11-05T18:55:09.005Z,10.75
2022-11-05T18:57:36.368Z,10.00
2022-11-05T19:00:05.145Z,10.27
2022-11-05T19:02:32.419Z,10.25
2022-11-05T19:05:28.703Z,11.35
2022-11-05T19:07:46.567Z,9.88
2022-11-05T19:10:13.890Z,10.32
2022-11-05T19:12:43.599Z,10.50
2022-11-05T19:15:11.018Z,10.20
2022-11-05T19:17:38.104Z,11.48
2022-11-05T19:20:11.411Z,10.40
2022-11-05T19:22:38.492Z,10.35
2022-11-05T19:25:06.941Z,10.73
2022-11-05T19:27:37.722Z,12.30
2022-11-05T19:30:06.665Z,11.90
2022-11-05T19:32:33.744Z,11.75
2022-11-05T19:35:00.863Z,13.13
2022-11-05T19:37:27.950Z,13.05
2022-11-05T19:39:55.031Z,12.65
2022-11-05T19:42:22.116Z,11.30
2022-11-05T19:44:49.213Z,12.55
2022-11-05T19:47:17.167Z,11.82
2022-11-05T19:49:44.216Z,13.85
2022-11-05T19:52:11.406Z,11.80
2022-11-05T19:54:41.065Z,12.82
2022-11-05T19:57:08.198Z,13.05
2022-11-05T19:59:35.285Z,13.48
2022-11-05T20:02:02.376Z,14.85
2022-11-05T20:04:32.391Z,16.08
2022-11-05T20:07:02.243Z,18.77
2022-11-05T20:09:29.481Z,16.08
2022-11-05T20:11:57.095Z,17.25
2022-11-05T20:14:26.273Z,18.95
2022-11-05T20:16:54.059Z,17.55
2022-11-05T20:19:25.069Z,18.33
2022-11-05T20:21:52.282Z,17.42
2022-11-05T20:24:24.895Z,16.10
2022-11-05T20:26:54.944Z,16.88
2022-11-05T20:29:23.774Z,16.98
2022-11-05T20:31:53.289Z,17.55
2022-11-05T20:34:20.479Z,18.23
2022-11-05T20:36:47.626Z,18.00
2022-11-05T20:39:14.864Z,18.65
2022-11-05T20:41:42.095Z,19.73
2022-11-05T20:44:09.235Z,18.65
2022-11-05T20:46:36.504Z,19.35
2022-11-05T20:49:08.445Z,17.63
2022-11-05T20:51:35.490Z,17.80
2022-11-05T20:54:03.922Z,17.95
2022-11-05T20:56:37.096Z,18.55
2022-11-05T20:59:05.514Z,16.70
2022-11-05T21:01:34.455Z,17.27
2022-11-05T21:04:03.125Z,17.67
2022-11-05T21:06:31.459Z,17.40
2022-11-05T21:08:58.771Z,17.92
2022-11-05T21:11:28.401Z,16.65
2022-11-05T21:13:55.570Z,17.83
2022-11-05T21:16:22.826Z,16.80
2022-11-05T21:18:50.096Z,17.52
2022-11-05T21:21:22.739Z,17.15
2022-11-05T21:23:49.873Z,18.95
2022-11-05T21:26:19.069Z,18.38
2022-11-05T21:28:46.237Z,18.50
2022-11-05T21:31:13.827Z,18.83
2022-11-05T21:33:43.172Z,19.17
2022-11-05T21:36:13.067Z,18.98
2022-11-05T21:38:41.150Z,19.10
2022-11-05T21:41:11.749Z,18.90
2022-11-05T21:43:41.786Z,20.08
2022-11-05T21:46:12.170Z,20.40
2022-11-05T21:48:40.107Z,19.25
2022-11-05T21:51:26.583Z,19.75
2022-11-05T21:54:15.179Z,19.20
2022-11-05T21:57:05.975Z,18.23
2022-11-05T21:59:49.026Z,18.80
2022-11-05T22:02:20.554Z,18.80
2022-11-05T22:04:52.207Z,20.27
2022-11-05T22:07:23.834Z,20.05
2022-11-05T22:09:51.354Z,19.48
2022-11-05T22:12:21.617Z,19.42
2022-11-05T22:14:48.901Z,20.38
2022-11-05T22:17:19.806Z,19.80
2022-11-05T22:19:47.248Z,19.98
2022-11-05T22:22:14.527Z,16.58
2022-11-05T22:24:44.521Z,16.55
2022-11-05T22:27:16.367Z,16.75
2022-11-05T22:29:43.640Z,17.73
2022-11-05T22:32:12.069Z,17.73
2022-11-05T22:34:39.379Z,17.25
2022-11-05T22:37:07.147Z,16.58
2022-11-05T22:39:35.204Z,18.30
2022-11-05T22:42:07.225Z,16.48
2022-11-05T22:44:36.234Z,14.65
2022-11-05T22:47:03.555Z,15.57
2022-11-05T22:49:30.740Z,14.77
2022-11-05T22:51:57.877Z,15.00
2022-11-05T22:54:25.024Z,16.80
2022-11-05T22:56:54.607Z,17.50
2022-11-05T22:59:21.797Z,18.40
2022-11-05T23:01:49.509Z,18.60
2022-11-05T23:04:17.076Z,17.67
2022-11-05T23:07:03.060Z,18.48
2022-11-05T23:09:52.934Z,18.58
2022-11-05T23:12:37.876Z,20.35
2022-11-05T23:15:07.891Z,18.95
2022-11-05T23:17:53.788Z,20.10
2022-11-05T23:20:42.258Z,21.08
2022-11-05T23:23:31.519Z,20.95
2022-11-05T23:26:00.512Z,21.17
2022-11-05T23:28:27.577Z,21.08
2022-11-05T23:31:13.506Z,21.13
2022-11-05T23:33:40.592Z,20.67
2022-11-05T23:36:31.551Z,21.73
2022-11-05T23:39:01.180Z,22.75
2022-11-05T23:41:46.823Z,22.77
2022-11-05T23:44:35.026Z,24.98
2022-11-05T23:47:21.101Z,24.85
2022-11-05T23:49:48.197Z,24.13
2022-11-05T23:52:15.354Z,23.65
2022-11-05T23:54:42.526Z,24.00
2022-11-05T23:57:09.706Z,25.52
2022-11-05T23:59:36.856Z,24.35
